sensor_id;sensor_type;location;lat;lon;timestamp;temperature;humidity
22716;DHT22;11525;51.152;4.456;2023-05-07T00:00:00;16.40;99.90
22716;DHT22;11525;51.152;4.456;2023-05-07T00:02:26;16.40;99.90
22716;DHT22;11525;51.152;4.456;2023-05-07T00:04:52;16.30;99.90
22716;DHT22;11525;51.152;4.456;2023-05-07T00:07:18;16.30;99.90
22716;DHT22;11525;51.152;4.456;2023-05-07T00:09:43;16.20;99.90
22716;DHT22;11525;51.152;4.456;2023-05-07T00:12:09;16.10;99.90
22716;DHT22;11525;51.152;4.456;2023-05-07T00:14:35;16.10;99.90
22716;DHT22;11525;51.152;4.456;2023-05-07T00:17:01;16.20;99.90
22716;DHT22;11525;51.152;4.456;2023-05-07T00:19:27;16.20;99.90
22716;DHT22;11525;51.152;4.456;2023-05-07T00:21:53;16.30;99.90
22716;DHT22;11525;51.152;4.456;2023-05-07T00:24:22;16.30;99.90
22716;DHT22;11525;51.152;4.456;2023-05-07T00:26:48;16.10;99.90
22716;DHT22;11525;51.152;4.456;2023-05-07T00:29:13;16.10;99.90
22716;DHT22;11525;51.152;4.456;2023-05-07T00:31:39;16.10;99.90
22716;DHT22;11525;51.152;4.456;2023-05-07T00:34:05;16.10;99.90
22716;DHT22;11525;51.152;4.456;2023-05-07T00:36:31;16.00;99.90
22716;DHT22;11525;51.152;4.456;2023-05-07T00:38:59;15.90;99.90
22716;DHT22;11525;51.152;4.456;2023-05-07T00:41:25;15.90;99.90
22716;DHT22;11525;51.152;4.456;2023-05-07T00:43:51;16.10;99.90
22716;DHT22;11525;51.152;4.456;2023-05-07T00:46:20;16.10;99.90
22716;DHT22;11525;51.152;4.456;2023-05-07T00:48:46;16.10;99.90
22716;DHT22;11525;51.152;4.456;2023-05-07T00:51:12;16.20;99.90
22716;DHT22;11525;51.152;4.456;2023-05-07T00:53:38;16.10;99.90
22716;DHT22;11525;51.152;4.456;2023-05-07T00:56:05;16.20;99.90
22716;DHT22;11525;51.152;4.456;2023-05-07T00:58:32;16.20;99.90
22716;DHT22;11525;51.152;4.456;2023-05-07T01:00:58;16.10;99.90
22716;DHT22;11525;51.152;4.456;2023-05-07T01:03:23;16.10;99.90
22716;DHT22;11525;51.152;4.456;2023-05-07T01:05:50;16.10;99.90
22716;DHT22;11525;51.152;4.456;2023-05-07T01:08:17;16.20;99.90
22716;DHT22;11525;51.152;4.456;2023-05-07T01:10:44;16.10;99.90
22716;DHT22;11525;51.152;4.456;2023-05-07T01:13:11;16.10;99.90
22716;DHT22;11525;51.152;4.456;2023-05-07T01:15:37;16.20;99.90
22716;DHT22;11525;51.152;4.456;2023-05-07T01:18:04;16.10;99.90
22716;DHT22;11525;51.152;4.456;2023-05-07T01:20:30;16.10;99.90
22716;DHT22;11525;51.152;4.456;2023-05-07T01:22:57;16.00;99.90
22716;DHT22;11525;51.152;4.456;2023-05-07T01:25:23;16.00;99.90
22716;DHT22;11525;51.152;4.456;2023-05-07T01:27:49;16.00;99.90
22716;DHT22;11525;51.152;4.456;2023-05-07T01:30:16;15.90;99.90
22716;DHT22;11525;51.152;4.456;2023-05-07T01:32:52;15.80;99.90
22716;DHT22;11525;51.152;4.456;2023-05-07T01:35:25;15.90;99.90
22716;DHT22;11525;51.152;4.456;2023-05-07T01:37:52;16.00;99.90
22716;DHT22;11525;51.152;4.456;2023-05-07T01:40:18;16.00;99.90
22716;DHT22;11525;51.152;4.456;2023-05-07T01:42:45;15.90;99.90
22716;DHT22;11525;51.152;4.456;2023-05-07T01:45:11;16.00;99.90
22716;DHT22;11525;51.152;4.456;2023-05-07T01:47:37;15.90;99.90
22716;DHT22;11525;51.152;4.456;2023-05-07T01:50:05;15.90;99.90
22716;DHT22;11525;51.152;4.456;2023-05-07T01:52:31;15.80;99.90
22716;DHT22;11525;51.152;4.456;2023-05-07T01:54:57;15.70;99.90
22716;DHT22;11525;51.152;4.456;2023-05-07T01:57:22;15.60;99.90
22716;DHT22;11525;51.152;4.456;2023-05-07T01:59:48;15.40;99.90
22716;DHT22;11525;51.152;4.456;2023-05-07T02:02:14;15.30;99.90
22716;DHT22;11525;51.152;4.456;2023-05-07T02:04:39;15.40;99.90
22716;DHT22;11525;51.152;4.456;2023-05-07T02:07:05;15.40;99.90
22716;DHT22;11525;51.152;4.456;2023-05-07T02:09:31;15.30;99.90
22716;DHT22;11525;51.152;4.456;2023-05-07T02:11:56;15.40;99.90
22716;DHT22;11525;51.152;4.456;2023-05-07T02:14:22;15.30;99.90
22716;DHT22;11525;51.152;4.456;2023-05-07T02:16:48;15.20;99.90
22716;DHT22;11525;51.152;4.456;2023-05-07T02:19:13;15.20;99.90
22716;DHT22;11525;51.152;4.456;2023-05-07T02:21:39;15.20;99.90
22716;DHT22;11525;51.152;4.456;2023-05-07T02:24:06;15.20;99.90
22716;DHT22;11525;51.152;4.456;2023-05-07T02:26:32;15.30;99.90
22716;DHT22;11525;51.152;4.456;2023-05-07T02:28:57;15.30;99.90
22716;DHT22;11525;51.152;4.456;2023-05-07T02:31:23;15.40;99.90
22716;DHT22;11525;51.152;4.456;2023-05-07T02:33:49;15.50;99.90
22716;DHT22;11525;51.152;4.456;2023-05-07T02:36:15;15.50;99.90
22716;DHT22;11525;51.152;4.456;2023-05-07T02:38:40;15.50;99.90
22716;DHT22;11525;51.152;4.456;2023-05-07T02:41:06;15.50;99.90
22716;DHT22;11525;51.152;4.456;2023-05-07T02:43:32;15.50;99.90
22716;DHT22;11525;51.152;4.456;2023-05-07T02:46:05;15.50;99.90
22716;DHT22;11525;51.152;4.456;2023-05-07T02:48:31;15.50;99.90
22716;DHT22;11525;51.152;4.456;2023-05-07T02:50:58;15.60;99.90
22716;DHT22;11525;51.152;4.456;2023-05-07T02:53:24;15.60;99.90
22716;DHT22;11525;51.152;4.456;2023-05-07T02:55:56;15.60;99.90
22716;DHT22;11525;51.152;4.456;2023-05-07T02:58:22;15.70;99.90
22716;DHT22;11525;51.152;4.456;2023-05-07T03:00:47;15.70;99.90
22716;DHT22;11525;51.152;4.456;2023-05-07T03:03:14;15.80;99.90
22716;DHT22;11525;51.152;4.456;2023-05-07T03:05:40;15.80;99.90
22716;DHT22;11525;51.152;4.456;2023-05-07T03:08:06;15.80;99.90
22716;DHT22;11525;51.152;4.456;2023-05-07T03:10:32;15.80;99.90
22716;DHT22;11525;51.152;4.456;2023-05-07T03:12:57;15.80;99.90
22716;DHT22;11525;51.152;4.456;2023-05-07T03:15:23;15.80;99.90
22716;DHT22;11525;51.152;4.456;2023-05-07T03:17:49;15.80;99.90
22716;DHT22;11525;51.152;4.456;2023-05-07T03:20:14;15.90;99.90
22716;DHT22;11525;51.152;4.456;2023-05-07T03:22:40;16.00;99.90
22716;DHT22;11525;51.152;4.456;2023-05-07T03:25:07;15.90;99.90
22716;DHT22;11525;51.152;4.456;2023-05-07T03:27:32;15.90;99.90
22716;DHT22;11525;51.152;4.456;2023-05-07T03:29:58;15.90;99.90
22716;DHT22;11525;51.152;4.456;2023-05-07T03:32:24;16.00;99.90
22716;DHT22;11525;51.152;4.456;2023-05-07T03:34:50;16.00;99.90
22716;DHT22;11525;51.152;4.456;2023-05-07T03:37:16;15.90;99.90
22716;DHT22;11525;51.152;4.456;2023-05-07T03:39:41;15.90;99.90
22716;DHT22;11525;51.152;4.456;2023-05-07T03:42:07;16.00;99.90
22716;DHT22;11525;51.152;4.456;2023-05-07T03:44:33;15.90;99.90
22716;DHT22;11525;51.152;4.456;2023-05-07T03:46:58;15.90;99.90
22716;DHT22;11525;51.152;4.456;2023-05-07T03:49:24;16.00;99.90
22716;DHT22;11525;51.152;4.456;2023-05-07T03:51:50;16.10;99.90
22716;DHT22;11525;51.152;4.456;2023-05-07T03:54:16;16.10;99.90
22716;DHT22;11525;51.152;4.456;2023-05-07T03:56:41;16.00;99.90
22716;DHT22;11525;51.152;4.456;2023-05-07T03:59:07;15.90;99.90
22716;DHT22;11525;51.152;4.456;2023-05-07T04:01:33;15.90;99.90
22716;DHT22;11525;51.152;4.456;2023-05-07T04:04:00;15.90;99.90
22716;DHT22;11525;51.152;4.456;2023-05-07T04:06:25;15.90;99.90
22716;DHT22;11525;51.152;4.456;2023-05-07T04:08:51;16.00;99.90
22716;DHT22;11525;51.152;4.456;2023-05-07T04:11:17;15.90;99.90
22716;DHT22;11525;51.152;4.456;2023-05-07T04:13:42;15.80;99.90
22716;DHT22;11525;51.152;4.456;2023-05-07T04:16:08;15.50;99.90
22716;DHT22;11525;51.152;4.456;2023-05-07T04:18:34;15.40;99.90
22716;DHT22;11525;51.152;4.456;2023-05-07T04:20:59;15.40;99.90
22716;DHT22;11525;51.152;4.456;2023-05-07T04:23:25;15.50;99.90
22716;DHT22;11525;51.152;4.456;2023-05-07T04:25:51;15.50;99.90
22716;DHT22;11525;51.152;4.456;2023-05-07T04:28:16;15.50;99.90
22716;DHT22;11525;51.152;4.456;2023-05-07T04:30:42;15.40;99.90
22716;DHT22;11525;51.152;4.456;2023-05-07T04:33:08;15.30;99.90
22716;DHT22;11525;51.152;4.456;2023-05-07T04:35:33;15.30;99.90
22716;DHT22;11525;51.152;4.456;2023-05-07T04:38:00;15.30;99.90
22716;DHT22;11525;51.152;4.456;2023-05-07T04:40:25;15.40;99.90
22716;DHT22;11525;51.152;4.456;2023-05-07T04:42:51;15.50;99.90
22716;DHT22;11525;51.152;4.456;2023-05-07T04:45:18;15.60;99.90
22716;DHT22;11525;51.152;4.456;2023-05-07T04:47:44;15.70;99.90
22716;DHT22;11525;51.152;4.456;2023-05-07T04:50:10;15.70;99.90
22716;DHT22;11525;51.152;4.456;2023-05-07T04:52:36;15.70;99.90
22716;DHT22;11525;51.152;4.456;2023-05-07T04:55:02;15.80;99.90
22716;DHT22;11525;51.152;4.456;2023-05-07T04:57:27;15.70;99.90
22716;DHT22;11525;51.152;4.456;2023-05-07T04:59:54;15.80;99.90
22716;DHT22;11525;51.152;4.456;2023-05-07T05:02:19;15.90;99.90
22716;DHT22;11525;51.152;4.456;2023-05-07T05:04:45;15.90;99.90
22716;DHT22;11525;51.152;4.456;2023-05-07T05:07:11;16.00;99.90
22716;DHT22;11525;51.152;4.456;2023-05-07T05:09:37;16.10;99.90
22716;DHT22;11525;51.152;4.456;2023-05-07T05:12:02;16.10;99.90
22716;DHT22;11525;51.152;4.456;2023-05-07T05:14:28;16.10;99.90
22716;DHT22;11525;51.152;4.456;2023-05-07T05:16:54;16.20;99.90
22716;DHT22;11525;51.152;4.456;2023-05-07T05:19:20;16.30;99.90
22716;DHT22;11525;51.152;4.456;2023-05-07T05:21:46;16.30;99.90
22716;DHT22;11525;51.152;4.456;2023-05-07T05:24:12;16.30;99.90
22716;DHT22;11525;51.152;4.456;2023-05-07T05:26:37;16.20;99.90
22716;DHT22;11525;51.152;4.456;2023-05-07T05:29:03;16.20;99.90
22716;DHT22;11525;51.152;4.456;2023-05-07T05:31:29;16.40;99.90
22716;DHT22;11525;51.152;4.456;2023-05-07T05:33:55;16.50;99.90
22716;DHT22;11525;51.152;4.456;2023-05-07T05:36:20;16.60;99.90
22716;DHT22;11525;51.152;4.456;2023-05-07T05:38:46;16.70;99.90
22716;DHT22;11525;51.152;4.456;2023-05-07T05:41:12;16.70;99.90
22716;DHT22;11525;51.152;4.456;2023-05-07T05:43:37;16.70;99.90
22716;DHT22;11525;51.152;4.456;2023-05-07T05:46:03;16.70;99.90
22716;DHT22;11525;51.152;4.456;2023-05-07T05:48:30;16.70;99.90
22716;DHT22;11525;51.152;4.456;2023-05-07T05:50:56;16.50;99.90
22716;DHT22;11525;51.152;4.456;2023-05-07T05:53:21;16.40;99.90
22716;DHT22;11525;51.152;4.456;2023-05-07T05:55:47;16.20;99.90
22716;DHT22;11525;51.152;4.456;2023-05-07T05:58:13;16.10;99.90
22716;DHT22;11525;51.152;4.456;2023-05-07T06:00:41;16.00;99.90
22716;DHT22;11525;51.152;4.456;2023-05-07T06:03:06;15.90;99.90
22716;DHT22;11525;51.152;4.456;2023-05-07T06:05:32;16.00;99.90
22716;DHT22;11525;51.152;4.456;2023-05-07T06:07:58;16.20;99.90
22716;DHT22;11525;51.152;4.456;2023-05-07T06:10:24;16.00;99.90
22716;DHT22;11525;51.152;4.456;2023-05-07T06:12:51;16.10;99.90
22716;DHT22;11525;51.152;4.456;2023-05-07T06:15:17;16.30;99.90
22716;DHT22;11525;51.152;4.456;2023-05-07T06:17:42;16.40;99.90
22716;DHT22;11525;51.152;4.456;2023-05-07T06:20:08;16.30;99.90
22716;DHT22;11525;51.152;4.456;2023-05-07T06:22:34;16.30;99.90
22716;DHT22;11525;51.152;4.456;2023-05-07T06:25:00;16.50;99.90
22716;DHT22;11525;51.152;4.456;2023-05-07T06:27:26;16.60;99.90
22716;DHT22;11525;51.152;4.456;2023-05-07T06:29:53;16.80;99.90
22716;DHT22;11525;51.152;4.456;2023-05-07T06:32:19;16.70;99.90
22716;DHT22;11525;51.152;4.456;2023-05-07T06:34:44;16.90;99.90
22716;DHT22;11525;51.152;4.456;2023-05-07T06:37:10;16.70;99.90
22716;DHT22;11525;51.152;4.456;2023-05-07T06:39:36;17.00;99.90
22716;DHT22;11525;51.152;4.456;2023-05-07T06:42:01;17.30;99.90
22716;DHT22;11525;51.152;4.456;2023-05-07T06:44:28;17.50;99.90
22716;DHT22;11525;51.152;4.456;2023-05-07T06:46:53;17.80;99.90
22716;DHT22;11525;51.152;4.456;2023-05-07T06:49:19;18.10;99.90
22716;DHT22;11525;51.152;4.456;2023-05-07T06:51:45;18.20;99.90
22716;DHT22;11525;51.152;4.456;2023-05-07T06:54:10;18.30;99.90
22716;DHT22;11525;51.152;4.456;2023-05-07T06:56:36;18.20;99.90
22716;DHT22;11525;51.152;4.456;2023-05-07T06:59:02;18.20;99.90
22716;DHT22;11525;51.152;4.456;2023-05-07T07:01:28;18.20;99.90
22716;DHT22;11525;51.152;4.456;2023-05-07T07:03:54;18.10;99.90
22716;DHT22;11525;51.152;4.456;2023-05-07T07:06:20;18.10;99.90
22716;DHT22;11525;51.152;4.456;2023-05-07T07:08:45;18.20;99.90
22716;DHT22;11525;51.152;4.456;2023-05-07T07:11:11;18.30;99.90
22716;DHT22;11525;51.152;4.456;2023-05-07T07:13:37;18.30;99.90
22716;DHT22;11525;51.152;4.456;2023-05-07T07:16:03;18.30;99.90
22716;DHT22;11525;51.152;4.456;2023-05-07T07:18:28;18.50;99.90
22716;DHT22;11525;51.152;4.456;2023-05-07T07:20:54;18.70;99.90
22716;DHT22;11525;51.152;4.456;2023-05-07T07:23:20;19.10;99.90
22716;DHT22;11525;51.152;4.456;2023-05-07T07:25:46;19.20;99.90
22716;DHT22;11525;51.152;4.456;2023-05-07T07:28:12;19.30;99.90
22716;DHT22;11525;51.152;4.456;2023-05-07T07:30:38;19.30;99.90
22716;DHT22;11525;51.152;4.456;2023-05-07T07:33:04;19.30;99.90
22716;DHT22;11525;51.152;4.456;2023-05-07T07:35:33;19.40;99.90
22716;DHT22;11525;51.152;4.456;2023-05-07T07:37:59;19.50;99.90
22716;DHT22;11525;51.152;4.456;2023-05-07T07:40:25;19.60;99.90
22716;DHT22;11525;51.152;4.456;2023-05-07T07:42:54;19.60;99.90
22716;DHT22;11525;51.152;4.456;2023-05-07T07:45:20;19.60;99.90
22716;DHT22;11525;51.152;4.456;2023-05-07T07:47:46;19.80;99.90
22716;DHT22;11525;51.152;4.456;2023-05-07T07:50:12;19.90;99.90
22716;DHT22;11525;51.152;4.456;2023-05-07T07:52:37;20.00;99.90
22716;DHT22;11525;51.152;4.456;2023-05-07T07:55:03;20.10;99.90
22716;DHT22;11525;51.152;4.456;2023-05-07T07:57:30;20.10;99.90
22716;DHT22;11525;51.152;4.456;2023-05-07T07:59:56;20.20;99.90
22716;DHT22;11525;51.152;4.456;2023-05-07T08:02:21;20.10;99.90
22716;DHT22;11525;51.152;4.456;2023-05-07T08:04:47;20.10;99.90
22716;DHT22;11525;51.152;4.456;2023-05-07T08:07:13;20.10;99.90
22716;DHT22;11525;51.152;4.456;2023-05-07T08:09:39;20.10;99.90
22716;DHT22;11525;51.152;4.456;2023-05-07T08:12:07;20.20;99.90
22716;DHT22;11525;51.152;4.456;2023-05-07T08:14:34;20.20;99.90
22716;DHT22;11525;51.152;4.456;2023-05-07T08:17:00;20.30;99.90
22716;DHT22;11525;51.152;4.456;2023-05-07T08:19:26;20.30;99.90
22716;DHT22;11525;51.152;4.456;2023-05-07T08:21:51;20.30;99.90
22716;DHT22;11525;51.152;4.456;2023-05-07T08:24:17;20.40;99.90
22716;DHT22;11525;51.152;4.456;2023-05-07T08:26:44;20.40;99.90
22716;DHT22;11525;51.152;4.456;2023-05-07T08:29:10;20.50;99.90
22716;DHT22;11525;51.152;4.456;2023-05-07T08:31:36;20.60;99.90
22716;DHT22;11525;51.152;4.456;2023-05-07T08:34:04;20.50;99.90
22716;DHT22;11525;51.152;4.456;2023-05-07T08:36:30;20.50;99.90
22716;DHT22;11525;51.152;4.456;2023-05-07T08:38:56;20.40;99.90
22716;DHT22;11525;51.152;4.456;2023-05-07T08:41:22;20.40;99.90
22716;DHT22;11525;51.152;4.456;2023-05-07T08:43:51;20.30;99.90
22716;DHT22;11525;51.152;4.456;2023-05-07T08:46:20;20.30;99.90
22716;DHT22;11525;51.152;4.456;2023-05-07T08:48:50;20.30;99.90
22716;DHT22;11525;51.152;4.456;2023-05-07T08:51:20;20.30;99.90
22716;DHT22;11525;51.152;4.456;2023-05-07T08:53:47;20.20;99.90
22716;DHT22;11525;51.152;4.456;2023-05-07T08:56:14;20.10;99.90
22716;DHT22;11525;51.152;4.456;2023-05-07T08:58:44;20.20;99.90
22716;DHT22;11525;51.152;4.456;2023-05-07T09:01:14;20.20;99.90
22716;DHT22;11525;51.152;4.456;2023-05-07T09:03:44;20.20;99.90
22716;DHT22;11525;51.152;4.456;2023-05-07T09:06:10;20.10;99.90
22716;DHT22;11525;51.152;4.456;2023-05-07T09:08:35;20.30;99.90
22716;DHT22;11525;51.152;4.456;2023-05-07T09:11:02;20.40;99.90
22716;DHT22;11525;51.152;4.456;2023-05-07T09:13:28;20.40;99.90
22716;DHT22;11525;51.152;4.456;2023-05-07T09:15:55;20.50;99.90
22716;DHT22;11525;51.152;4.456;2023-05-07T09:18:20;20.50;99.90
22716;DHT22;11525;51.152;4.456;2023-05-07T09:20:46;20.40;99.90
22716;DHT22;11525;51.152;4.456;2023-05-07T09:23:12;20.20;99.90
22716;DHT22;11525;51.152;4.456;2023-05-07T09:25:38;20.40;99.90
22716;DHT22;11525;51.152;4.456;2023-05-07T09:28:04;20.30;99.90
22716;DHT22;11525;51.152;4.456;2023-05-07T09:30:35;20.30;99.90
22716;DHT22;11525;51.152;4.456;2023-05-07T09:33:02;20.20;99.90
22716;DHT22;11525;51.152;4.456;2023-05-07T09:35:30;20.20;99.90
22716;DHT22;11525;51.152;4.456;2023-05-07T09:38:00;20.10;99.90
22716;DHT22;11525;51.152;4.456;2023-05-07T09:40:30;20.00;99.90
22716;DHT22;11525;51.152;4.456;2023-05-07T09:42:56;19.80;99.90
22716;DHT22;11525;51.152;4.456;2023-05-07T09:45:33;19.80;99.90
22716;DHT22;11525;51.152;4.456;2023-05-07T09:48:00;19.80;99.90
22716;DHT22;11525;51.152;4.456;2023-05-07T09:50:35;19.70;99.90
22716;DHT22;11525;51.152;4.456;2023-05-07T09:53:01;19.60;99.90
22716;DHT22;11525;51.152;4.456;2023-05-07T09:55:28;19.60;99.90
22716;DHT22;11525;51.152;4.456;2023-05-07T09:57:55;19.60;99.90
22716;DHT22;11525;51.152;4.456;2023-05-07T10:00:21;19.60;99.90
22716;DHT22;11525;51.152;4.456;2023-05-07T10:02:51;19.60;99.90
22716;DHT22;11525;51.152;4.456;2023-05-07T10:05:18;19.60;99.90
22716;DHT22;11525;51.152;4.456;2023-05-07T10:07:46;19.60;99.90
22716;DHT22;11525;51.152;4.456;2023-05-07T10:10:12;19.60;99.90
22716;DHT22;11525;51.152;4.456;2023-05-07T10:12:40;19.50;99.90
22716;DHT22;11525;51.152;4.456;2023-05-07T10:15:10;19.50;99.90
22716;DHT22;11525;51.152;4.456;2023-05-07T10:17:37;19.50;99.90
22716;DHT22;11525;51.152;4.456;2023-05-07T10:20:04;19.50;99.90
22716;DHT22;11525;51.152;4.456;2023-05-07T10:22:36;19.50;99.90
22716;DHT22;11525;51.152;4.456;2023-05-07T10:25:04;19.50;99.90
22716;DHT22;11525;51.152;4.456;2023-05-07T10:27:32;19.60;99.90
22716;DHT22;11525;51.152;4.456;2023-05-07T10:30:08;19.60;99.90
22716;DHT22;11525;51.152;4.456;2023-05-07T10:32:52;19.60;99.90
22716;DHT22;11525;51.152;4.456;2023-05-07T10:35:25;19.80;99.90
22716;DHT22;11525;51.152;4.456;2023-05-07T10:37:51;19.90;99.90
22716;DHT22;11525;51.152;4.456;2023-05-07T10:40:17;19.80;99.90
22716;DHT22;11525;51.152;4.456;2023-05-07T10:42:56;19.80;99.90
22716;DHT22;11525;51.152;4.456;2023-05-07T10:45:23;19.90;99.90
22716;DHT22;11525;51.152;4.456;2023-05-07T10:48:09;20.00;99.90
22716;DHT22;11525;51.152;4.456;2023-05-07T10:50:39;20.10;99.90
22716;DHT22;11525;51.152;4.456;2023-05-07T10:55:51;20.10;99.90
22716;DHT22;11525;51.152;4.456;2023-05-07T10:58:28;20.10;99.90
22716;DHT22;11525;51.152;4.456;2023-05-07T11:00:59;20.00;99.90
22716;DHT22;11525;51.152;4.456;2023-05-07T11:03:25;20.10;99.90
22716;DHT22;11525;51.152;4.456;2023-05-07T11:11:14;20.10;99.90
22716;DHT22;11525;51.152;4.456;2023-05-07T11:13:44;20.20;99.90
22716;DHT22;11525;51.152;4.456;2023-05-07T11:16:17;20.10;99.90
22716;DHT22;11525;51.152;4.456;2023-05-07T11:18:52;20.20;99.90
22716;DHT22;11525;51.152;4.456;2023-05-07T11:21:32;20.00;99.90
22716;DHT22;11525;51.152;4.456;2023-05-07T11:23:59;19.80;99.90
22716;DHT22;11525;51.152;4.456;2023-05-07T11:26:25;19.80;99.90
22716;DHT22;11525;51.152;4.456;2023-05-07T11:28:52;19.80;99.90
22716;DHT22;11525;51.152;4.456;2023-05-07T11:31:26;19.70;99.90
22716;DHT22;11525;51.152;4.456;2023-05-07T11:33:54;19.60;99.90
22716;DHT22;11525;51.152;4.456;2023-05-07T11:36:22;19.70;99.90
22716;DHT22;11525;51.152;4.456;2023-05-07T11:38:49;19.70;99.90
22716;DHT22;11525;51.152;4.456;2023-05-07T11:41:16;19.90;99.90
22716;DHT22;11525;51.152;4.456;2023-05-07T11:43:59;20.10;99.90
22716;DHT22;11525;51.152;4.456;2023-05-07T11:46:26;20.20;99.90
22716;DHT22;11525;51.152;4.456;2023-05-07T11:48:51;20.40;99.90
22716;DHT22;11525;51.152;4.456;2023-05-07T11:51:22;20.50;99.90
22716;DHT22;11525;51.152;4.456;2023-05-07T11:53:48;20.70;99.90
22716;DHT22;11525;51.152;4.456;2023-05-07T11:56:16;20.90;99.90
22716;DHT22;11525;51.152;4.456;2023-05-07T11:58:43;20.90;99.90
22716;DHT22;11525;51.152;4.456;2023-05-07T12:01:10;20.80;99.90
22716;DHT22;11525;51.152;4.456;2023-05-07T12:03:37;20.80;99.90
22716;DHT22;11525;51.152;4.456;2023-05-07T12:06:05;20.50;99.90
22716;DHT22;11525;51.152;4.456;2023-05-07T12:08:31;20.30;99.90
22716;DHT22;11525;51.152;4.456;2023-05-07T12:10:57;20.30;99.90
22716;DHT22;11525;51.152;4.456;2023-05-07T12:13:25;20.40;99.90
22716;DHT22;11525;51.152;4.456;2023-05-07T12:15:55;20.60;99.90
22716;DHT22;11525;51.152;4.456;2023-05-07T12:18:21;20.60;99.90
22716;DHT22;11525;51.152;4.456;2023-05-07T12:20:47;20.60;99.90
22716;DHT22;11525;51.152;4.456;2023-05-07T12:23:14;20.60;99.90
22716;DHT22;11525;51.152;4.456;2023-05-07T12:25:41;20.80;99.90
22716;DHT22;11525;51.152;4.456;2023-05-07T12:28:15;20.80;99.90
22716;DHT22;11525;51.152;4.456;2023-05-07T12:30:43;20.90;99.90
22716;DHT22;11525;51.152;4.456;2023-05-07T12:33:09;20.90;99.90
22716;DHT22;11525;51.152;4.456;2023-05-07T12:35:39;21.10;99.90
22716;DHT22;11525;51.152;4.456;2023-05-07T12:38:17;21.20;99.90
22716;DHT22;11525;51.152;4.456;2023-05-07T12:40:46;21.30;99.90
22716;DHT22;11525;51.152;4.456;2023-05-07T12:43:19;21.40;99.90
22716;DHT22;11525;51.152;4.456;2023-05-07T12:45:48;21.80;99.90
22716;DHT22;11525;51.152;4.456;2023-05-07T12:48:14;22.00;99.90
22716;DHT22;11525;51.152;4.456;2023-05-07T12:50:40;22.00;99.90
22716;DHT22;11525;51.152;4.456;2023-05-07T12:53:08;21.90;99.90
22716;DHT22;11525;51.152;4.456;2023-05-07T12:55:48;21.90;99.90
22716;DHT22;11525;51.152;4.456;2023-05-07T13:00:44;22.20;99.90
22716;DHT22;11525;51.152;4.456;2023-05-07T13:03:10;22.00;99.90
22716;DHT22;11525;51.152;4.456;2023-05-07T13:05:36;22.00;99.90
22716;DHT22;11525;51.152;4.456;2023-05-07T13:08:02;21.90;99.90
22716;DHT22;11525;51.152;4.456;2023-05-07T13:10:28;22.10;99.90
22716;DHT22;11525;51.152;4.456;2023-05-07T13:12:54;22.30;99.90
22716;DHT22;11525;51.152;4.456;2023-05-07T13:15:20;22.50;99.90
22716;DHT22;11525;51.152;4.456;2023-05-07T13:17:47;22.30;99.90
22716;DHT22;11525;51.152;4.456;2023-05-07T13:20:12;22.10;99.90
22716;DHT22;11525;51.152;4.456;2023-05-07T13:22:39;22.00;99.90
22716;DHT22;11525;51.152;4.456;2023-05-07T13:25:05;22.00;99.90
22716;DHT22;11525;51.152;4.456;2023-05-07T13:27:31;22.30;99.90
22716;DHT22;11525;51.152;4.456;2023-05-07T13:29:57;22.60;99.90
22716;DHT22;11525;51.152;4.456;2023-05-07T13:32:23;22.60;99.90
22716;DHT22;11525;51.152;4.456;2023-05-07T13:34:48;22.90;99.90
22716;DHT22;11525;51.152;4.456;2023-05-07T13:37:14;22.80;99.90
22716;DHT22;11525;51.152;4.456;2023-05-07T13:39:40;22.80;99.90
22716;DHT22;11525;51.152;4.456;2023-05-07T13:42:06;22.80;99.90
22716;DHT22;11525;51.152;4.456;2023-05-07T13:44:32;22.80;99.90
22716;DHT22;11525;51.152;4.456;2023-05-07T13:46:58;22.90;99.90
22716;DHT22;11525;51.152;4.456;2023-05-07T13:49:24;22.80;99.90
22716;DHT22;11525;51.152;4.456;2023-05-07T13:51:49;22.90;99.90
22716;DHT22;11525;51.152;4.456;2023-05-07T13:54:15;22.80;99.90
22716;DHT22;11525;51.152;4.456;2023-05-07T13:56:41;22.80;99.90
22716;DHT22;11525;51.152;4.456;2023-05-07T13:59:07;22.50;99.90
22716;DHT22;11525;51.152;4.456;2023-05-07T14:01:33;22.60;99.90
22716;DHT22;11525;51.152;4.456;2023-05-07T14:03:58;22.60;99.90
22716;DHT22;11525;51.152;4.456;2023-05-07T14:06:25;22.50;99.90
22716;DHT22;11525;51.152;4.456;2023-05-07T14:08:51;22.30;99.90
22716;DHT22;11525;51.152;4.456;2023-05-07T14:11:16;22.50;99.90
22716;DHT22;11525;51.152;4.456;2023-05-07T14:13:42;22.70;99.90
22716;DHT22;11525;51.152;4.456;2023-05-07T14:16:08;22.70;99.90
22716;DHT22;11525;51.152;4.456;2023-05-07T14:18:33;22.60;99.90
22716;DHT22;11525;51.152;4.456;2023-05-07T14:21:00;22.30;99.90
22716;DHT22;11525;51.152;4.456;2023-05-07T14:23:26;22.00;99.90
22716;DHT22;11525;51.152;4.456;2023-05-07T14:25:52;22.10;99.90
22716;DHT22;11525;51.152;4.456;2023-05-07T14:28:19;22.10;99.90
22716;DHT22;11525;51.152;4.456;2023-05-07T14:30:45;22.40;99.90
22716;DHT22;11525;51.152;4.456;2023-05-07T14:33:10;22.20;99.90
22716;DHT22;11525;51.152;4.456;2023-05-07T14:35:36;22.00;99.90
22716;DHT22;11525;51.152;4.456;2023-05-07T14:38:02;22.10;99.90
22716;DHT22;11525;51.152;4.456;2023-05-07T14:40:28;22.10;99.90
22716;DHT22;11525;51.152;4.456;2023-05-07T14:42:53;22.10;99.90
22716;DHT22;11525;51.152;4.456;2023-05-07T14:45:20;21.60;99.90
22716;DHT22;11525;51.152;4.456;2023-05-07T14:47:46;21.80;99.90
22716;DHT22;11525;51.152;4.456;2023-05-07T14:50:12;21.90;99.90
22716;DHT22;11525;51.152;4.456;2023-05-07T14:52:37;22.00;99.90
22716;DHT22;11525;51.152;4.456;2023-05-07T14:55:04;21.70;99.90
22716;DHT22;11525;51.152;4.456;2023-05-07T14:57:30;21.70;99.90
22716;DHT22;11525;51.152;4.456;2023-05-07T15:00:00;21.40;99.90
22716;DHT22;11525;51.152;4.456;2023-05-07T15:02:26;21.60;99.90
22716;DHT22;11525;51.152;4.456;2023-05-07T15:04:52;21.60;99.90
22716;DHT22;11525;51.152;4.456;2023-05-07T15:07:18;21.40;99.90
22716;DHT22;11525;51.152;4.456;2023-05-07T15:09:44;20.90;99.90
22716;DHT22;11525;51.152;4.456;2023-05-07T15:12:10;20.80;99.90
22716;DHT22;11525;51.152;4.456;2023-05-07T15:14:39;20.60;99.90
22716;DHT22;11525;51.152;4.456;2023-05-07T15:17:05;20.50;99.90
22716;DHT22;11525;51.152;4.456;2023-05-07T15:19:31;20.70;99.90
22716;DHT22;11525;51.152;4.456;2023-05-07T15:21:59;21.10;99.90
22716;DHT22;11525;51.152;4.456;2023-05-07T15:24:28;21.30;99.90
22716;DHT22;11525;51.152;4.456;2023-05-07T15:26:54;21.00;99.90
22716;DHT22;11525;51.152;4.456;2023-05-07T15:29:19;20.70;99.90
22716;DHT22;11525;51.152;4.456;2023-05-07T15:31:46;20.70;99.90
22716;DHT22;11525;51.152;4.456;2023-05-07T15:34:11;21.00;99.90
22716;DHT22;11525;51.152;4.456;2023-05-07T15:36:37;21.10;99.90